sensor_id;sensor_type;location;lat;lon;timestamp;pressure;altitude;pressure_sealevel;temperature;humidity
41636;BME280;27623;51.966;4.602;2023-02-15T00:01:36;63851.75;;;7.12;76.76
41636;BME280;27623;51.966;4.602;2023-02-15T00:04:02;63858.97;;;7.21;76.56
41636;BME280;27623;51.966;4.602;2023-02-15T00:06:27;63808.69;;;7.05;77.47
41636;BME280;27623;51.966;4.602;2023-02-15T00:08:55;63808.00;;;6.80;76.66
41636;BME280;27623;51.966;4.602;2023-02-15T00:11:21;63824.63;;;6.94;77.36
41636;BME280;27623;51.966;4.602;2023-02-15T00:14:13;63844.53;;;7.03;76.89
41636;BME280;27623;51.966;4.602;2023-02-15T00:16:40;63847.94;;;7.15;76.01
41636;BME280;27623;51.966;4.602;2023-02-15T00:19:07;63844.16;;;7.05;75.74
41636;BME280;27623;51.966;4.602;2023-02-15T00:21:34;63848.31;;;7.13;76.35
41636;BME280;27623;51.966;4.602;2023-02-15T00:24:02;63851.91;;;7.14;76.05
41636;BME280;27623;51.966;4.602;2023-02-15T00:26:27;63813.63;;;6.81;76.93
41636;BME280;27623;51.966;4.602;2023-02-15T00:28:53;63809.81;;;6.84;75.94
41636;BME280;27623;51.966;4.602;2023-02-15T00:31:20;63784.53;;;6.49;77.61
41636;BME280;27623;51.966;4.602;2023-02-15T00:33:45;63833.88;;;6.74;77.64
41636;BME280;27623;51.966;4.602;2023-02-15T00:36:11;63735.72;;;6.39;77.65
41636;BME280;27623;51.966;4.602;2023-02-15T00:38:37;63782.53;;;6.64;77.26
41636;BME280;27623;51.966;4.602;2023-02-15T00:41:05;63741.19;;;6.23;79.34
41636;BME280;27623;51.966;4.602;2023-02-15T00:43:32;63740.63;;;5.94;80.00
41636;BME280;27623;51.966;4.602;2023-02-15T00:45:58;63780.38;;;6.33;79.08
41636;BME280;27623;51.966;4.602;2023-02-15T00:48:23;63759.03;;;6.53;77.41
41636;BME280;27623;51.966;4.602;2023-02-15T00:50:53;63777.81;;;6.47;77.11
41636;BME280;27623;51.966;4.602;2023-02-15T00:53:19;63775.84;;;6.55;76.96
41636;BME280;27623;51.966;4.602;2023-02-15T00:55:45;63757.22;;;6.57;77.53
41636;BME280;27623;51.966;4.602;2023-02-15T00:58:11;63785.25;;;6.59;77.04
41636;BME280;27623;51.966;4.602;2023-02-15T01:00:37;63760.66;;;6.48;77.63
41636;BME280;27623;51.966;4.602;2023-02-15T01:03:04;63778.72;;;6.53;77.40
41636;BME280;27623;51.966;4.602;2023-02-15T01:05:30;63779.63;;;6.59;76.48
41636;BME280;27623;51.966;4.602;2023-02-15T01:07:58;63743.53;;;6.20;77.22
41636;BME280;27623;51.966;4.602;2023-02-15T01:10:26;63752.91;;;6.38;77.23
41636;BME280;27623;51.966;4.602;2023-02-15T01:12:52;63743.16;;;6.22;76.72
41636;BME280;27623;51.966;4.602;2023-02-15T01:15:18;63752.53;;;6.40;77.16
41636;BME280;27623;51.966;4.602;2023-02-15T01:17:44;63733.59;;;6.15;77.07
41636;BME280;27623;51.966;4.602;2023-02-15T01:20:15;63696.75;;;5.67;79.01
41636;BME280;27623;51.966;4.602;2023-02-15T01:22:40;63716.59;;;5.83;79.08
41636;BME280;27623;51.966;4.602;2023-02-15T01:25:06;63741.91;;;5.97;78.39
41636;BME280;27623;51.966;4.602;2023-02-15T01:27:31;63776.56;;;6.30;78.04
41636;BME280;27623;51.966;4.602;2023-02-15T01:29:56;63644.94;;;5.28;80.22
41636;BME280;27623;51.966;4.602;2023-02-15T01:32:22;63702.88;;;5.53;80.05
41636;BME280;27623;51.966;4.602;2023-02-15T01:34:48;63712.63;;;5.84;79.61
41636;BME280;27623;51.966;4.602;2023-02-15T01:37:13;63715.69;;;6.06;78.53
41636;BME280;27623;51.966;4.602;2023-02-15T01:39:39;63728.88;;;6.13;78.02
41636;BME280;27623;51.966;4.602;2023-02-15T01:42:04;63721.47;;;6.09;78.09
41636;BME280;27623;51.966;4.602;2023-02-15T01:44:50;63749.47;;;6.26;77.84
41636;BME280;27623;51.966;4.602;2023-02-15T01:47:25;63740.47;;;5.98;77.92
41636;BME280;27623;51.966;4.602;2023-02-15T01:50:00;63732.31;;;6.05;79.34
41636;BME280;27623;51.966;4.602;2023-02-15T01:52:26;63676.88;;;5.86;78.14
41636;BME280;27623;51.966;4.602;2023-02-15T01:54:52;63654.50;;;5.48;80.09
41636;BME280;27623;51.966;4.602;2023-02-15T01:57:22;63703.78;;;5.66;80.16
41636;BME280;27623;51.966;4.602;2023-02-15T01:59:53;63698.19;;;5.73;80.25
41636;BME280;27623;51.966;4.602;2023-02-15T02:02:21;63699.25;;;5.67;80.23
41636;BME280;27623;51.966;4.602;2023-02-15T02:04:54;63714.06;;;5.76;79.86
41636;BME280;27623;51.966;4.602;2023-02-15T02:07:27;63681.41;;;5.71;80.11
41636;BME280;27623;51.966;4.602;2023-02-15T02:09:54;63670.41;;;5.59;80.13
41636;BME280;27623;51.966;4.602;2023-02-15T02:12:21;63644.94;;;5.42;80.14
41636;BME280;27623;51.966;4.602;2023-02-15T02:14:49;63635.75;;;5.40;80.50
41636;BME280;27623;51.966;4.602;2023-02-15T02:25:16;63703.44;;;5.75;78.85
41636;BME280;27623;51.966;4.602;2023-02-15T02:36:35;63635.03;;;5.16;81.04
41636;BME280;27623;51.966;4.602;2023-02-15T02:42:06;63666.44;;;5.52;79.13
41636;BME280;27623;51.966;4.602;2023-02-15T02:44:57;63647.66;;;5.44;79.58
41636;BME280;27623;51.966;4.602;2023-02-15T02:48:02;63647.66;;;5.30;80.25
41636;BME280;27623;51.966;4.602;2023-02-15T02:50:29;63680.50;;;5.37;80.59
41636;BME280;27623;51.966;4.602;2023-02-15T02:52:56;63656.88;;;5.17;81.16
41636;BME280;27623;51.966;4.602;2023-02-15T02:55:27;63676.88;;;5.43;80.66
41636;BME280;27623;51.966;4.602;2023-02-15T03:00:21;63660.47;;;5.47;79.70
41636;BME280;27623;51.966;4.602;2023-02-15T03:02:52;63680.16;;;5.39;79.66
41636;BME280;27623;51.966;4.602;2023-02-15T03:05:22;63631.06;;;5.10;80.61
41636;BME280;27623;51.966;4.602;2023-02-15T03:07:51;63651.06;;;5.22;80.58
41636;BME280;27623;51.966;4.602;2023-02-15T03:10:21;63594.97;;;4.78;81.33
41636;BME280;27623;51.966;4.602;2023-02-15T03:12:47;63601.84;;;4.82;82.47
41636;BME280;27623;51.966;4.602;2023-02-15T03:15:21;63631.78;;;5.13;81.12
41636;BME280;27623;51.966;4.602;2023-02-15T03:17:51;63627.09;;;5.11;80.67
41636;BME280;27623;51.966;4.602;2023-02-15T03:20:22;63592.81;;;5.12;80.34
41636;BME280;27623;51.966;4.602;2023-02-15T03:23:14;63636.47;;;5.22;79.62
41636;BME280;27623;51.966;4.602;2023-02-15T03:25:48;63630.88;;;5.14;80.31
41636;BME280;27623;51.966;4.602;2023-02-15T03:28:20;63630.50;;;5.24;80.78
41636;BME280;27623;51.966;4.602;2023-02-15T03:30:52;63589.75;;;4.83;81.88
41636;BME280;27623;51.966;4.602;2023-02-15T03:33:20;63610.13;;;4.86;81.35
41636;BME280;27623;51.966;4.602;2023-02-15T03:36:04;63606.88;;;5.04;81.63
41636;BME280;27623;51.966;4.602;2023-02-15T03:38:44;63615.75;;;5.14;81.95
41636;BME280;27623;51.966;4.602;2023-02-15T03:41:14;63644.78;;;5.18;81.42
41636;BME280;27623;51.966;4.602;2023-02-15T03:43:53;63610.31;;;5.09;81.53
41636;BME280;27623;51.966;4.602;2023-02-15T03:51:34;63589.03;;;5.08;82.42
41636;BME280;27623;51.966;4.602;2023-02-15T03:54:07;63628.19;;;5.12;82.58
41636;BME280;27623;51.966;4.602;2023-02-15T03:56:36;63612.13;;;4.92;82.46
41636;BME280;27623;51.966;4.602;2023-02-15T03:59:05;63592.47;;;4.78;82.88
41636;BME280;27623;51.966;4.602;2023-02-15T04:02:14;63611.03;;;4.91;84.02
41636;BME280;27623;51.966;4.602;2023-02-15T04:04:46;63602.56;;;4.93;84.76
41636;BME280;27623;51.966;4.602;2023-02-15T04:07:12;63646.22;;;5.17;83.99
41636;BME280;27623;51.966;4.602;2023-02-15T04:09:37;63618.78;;;5.01;85.38
41636;BME280;27623;51.966;4.602;2023-02-15T04:12:38;63613.56;;;5.12;85.31
41636;BME280;27623;51.966;4.602;2023-02-15T04:15:04;63624.03;;;5.10;87.50
41636;BME280;27623;51.966;4.602;2023-02-15T04:17:48;63600.59;;;5.14;87.80
41636;BME280;27623;51.966;4.602;2023-02-15T04:20:13;63625.47;;;5.09;89.87
41636;BME280;27623;51.966;4.602;2023-02-15T04:22:57;63631.59;;;5.03;89.73
41636;BME280;27623;51.966;4.602;2023-02-15T04:25:41;63577.50;;;4.95;90.28
41636;BME280;27623;51.966;4.602;2023-02-15T04:28:06;63643.16;;;5.09;88.86
41636;BME280;27623;51.966;4.602;2023-02-15T04:30:33;63620.06;;;5.11;90.66
41636;BME280;27623;51.966;4.602;2023-02-15T04:32:58;63623.66;;;5.05;93.35
41636;BME280;27623;51.966;4.602;2023-02-15T04:35:26;63619.34;;;4.94;93.13
41636;BME280;27623;51.966;4.602;2023-02-15T04:37:51;63567.59;;;4.83;94.23
41636;BME280;27623;51.966;4.602;2023-02-15T04:40:17;63624.03;;;5.03;93.67
41636;BME280;27623;51.966;4.602;2023-02-15T04:42:42;63597.88;;;5.05;92.25
41636;BME280;27623;51.966;4.602;2023-02-15T04:45:08;63610.50;;;5.12;92.66
41636;BME280;27623;51.966;4.602;2023-02-15T04:47:33;63631.78;;;5.13;92.07
41636;BME280;27623;51.966;4.602;2023-02-15T04:49:59;63616.81;;;4.94;93.33
41636;BME280;27623;51.966;4.602;2023-02-15T04:52:24;63632.31;;;5.13;92.55
41636;BME280;27623;51.966;4.602;2023-02-15T04:54:50;63611.75;;;5.08;90.42
41636;BME280;27623;51.966;4.602;2023-02-15T04:57:17;63587.41;;;4.71;90.81
41636;BME280;27623;51.966;4.602;2023-02-15T04:59:43;63585.09;;;4.74;91.50
41636;BME280;27623;51.966;4.602;2023-02-15T05:02:08;63663.69;;;5.07;90.60
41636;BME280;27623;51.966;4.602;2023-02-15T05:04:34;63611.03;;;4.84;90.91
41636;BME280;27623;51.966;4.602;2023-02-15T05:06:59;63641.69;;;4.96;90.78
41636;BME280;27623;51.966;4.602;2023-02-15T05:09:25;63578.94;;;4.80;90.08
41636;BME280;27623;51.966;4.602;2023-02-15T05:11:50;63570.47;;;4.74;91.85
41636;BME280;27623;51.966;4.602;2023-02-15T05:14:15;63574.25;;;4.71;90.77
41636;BME280;27623;51.966;4.602;2023-02-15T05:16:41;63614.09;;;4.92;89.97
41636;BME280;27623;51.966;4.602;2023-02-15T05:19:06;63601.50;;;4.92;89.36
41636;BME280;27623;51.966;4.602;2023-02-15T05:21:32;63606.53;;;4.84;89.02
41636;BME280;27623;51.966;4.602;2023-02-15T05:23:57;63629.25;;;4.99;88.81
41636;BME280;27623;51.966;4.602;2023-02-15T05:26:24;63614.47;;;4.90;89.48
41636;BME280;27623;51.966;4.602;2023-02-15T05:29:08;63596.06;;;4.87;89.28
41636;BME280;27623;51.966;4.602;2023-02-15T05:31:34;63611.22;;;5.01;88.97
41636;BME280;27623;51.966;4.602;2023-02-15T05:34:00;63620.94;;;4.81;89.35
41636;BME280;27623;51.966;4.602;2023-02-15T05:36:26;63611.41;;;4.89;88.68
41636;BME280;27623;51.966;4.602;2023-02-15T05:38:51;63650.72;;;5.02;88.60
41636;BME280;27623;51.966;4.602;2023-02-15T05:41:16;63634.31;;;4.99;88.47
41636;BME280;27623;51.966;4.602;2023-02-15T05:43:42;63633.56;;;5.03;88.16
41636;BME280;27623;51.966;4.602;2023-02-15T05:46:10;63619.69;;;4.78;89.91
41636;BME280;27623;51.966;4.602;2023-02-15T05:48:36;63631.41;;;4.94;89.28
41636;BME280;27623;51.966;4.602;2023-02-15T05:51:05;63578.94;;;4.73;90.32
41636;BME280;27623;51.966;4.602;2023-02-15T05:53:33;63565.97;;;4.54;90.25
41636;BME280;27623;51.966;4.602;2023-02-15T05:56:00;63567.03;;;4.62;91.55
41636;BME280;27623;51.966;4.602;2023-02-15T05:58:28;63580.75;;;4.84;91.20
41636;BME280;27623;51.966;4.602;2023-02-15T06:00:54;63607.25;;;4.80;91.13
41636;BME280;27623;51.966;4.602;2023-02-15T06:03:20;63624.03;;;4.89;90.49
41636;BME280;27623;51.966;4.602;2023-02-15T06:05:45;63602.22;;;4.73;90.21
41636;BME280;27623;51.966;4.602;2023-02-15T06:08:11;63590.47;;;4.58;90.73
41636;BME280;27623;51.966;4.602;2023-02-15T06:10:36;63580.56;;;4.74;90.80
41636;BME280;27623;51.966;4.602;2023-02-15T06:13:02;63585.63;;;4.74;90.57
41636;BME280;27623;51.966;4.602;2023-02-15T06:15:27;63584.88;;;4.64;90.98
41636;BME280;27623;51.966;4.602;2023-02-15T06:17:52;63572.44;;;4.60;90.76
41636;BME280;27623;51.966;4.602;2023-02-15T06:20:18;63608.31;;;4.81;91.85
41636;BME280;27623;51.966;4.602;2023-02-15T06:22:43;63565.78;;;4.65;92.43
41636;BME280;27623;51.966;4.602;2023-02-15T06:25:09;63556.97;;;4.55;92.67
41636;BME280;27623;51.966;4.602;2023-02-15T06:27:36;63571.75;;;4.57;92.92
41636;BME280;27623;51.966;4.602;2023-02-15T06:30:03;63595.88;;;4.56;93.41
41636;BME280;27623;51.966;4.602;2023-02-15T06:32:29;63574.44;;;4.66;93.46
41636;BME280;27623;51.966;4.602;2023-02-15T06:34:56;63560.00;;;4.48;93.38
41636;BME280;27623;51.966;4.602;2023-02-15T06:37:22;63574.09;;;4.54;92.69
41636;BME280;27623;51.966;4.602;2023-02-15T06:39:47;63529.94;;;4.36;93.75
41636;BME280;27623;51.966;4.602;2023-02-15T06:42:13;63578.94;;;4.59;94.24
41636;BME280;27623;51.966;4.602;2023-02-15T06:44:38;63561.28;;;4.59;93.63
41636;BME280;27623;51.966;4.602;2023-02-15T06:47:03;63537.69;;;4.46;93.09
41636;BME280;27623;51.966;4.602;2023-02-15T06:49:29;63559.09;;;4.28;93.66
41636;BME280;27623;51.966;4.602;2023-02-15T06:51:54;63512.25;;;4.22;95.68
41636;BME280;27623;51.966;4.602;2023-02-15T06:54:19;63497.88;;;4.11;97.01
41636;BME280;27623;51.966;4.602;2023-02-15T06:56:45;63535.13;;;4.10;97.82
41636;BME280;27623;51.966;4.602;2023-02-15T06:59:10;63540.00;;;4.29;96.53
41636;BME280;27623;51.966;4.602;2023-02-15T07:01:36;63535.84;;;4.06;96.86
41636;BME280;27623;51.966;4.602;2023-02-15T07:04:02;63483.78;;;3.84;98.13
41636;BME280;27623;51.966;4.602;2023-02-15T07:06:31;63479.66;;;3.82;98.85
41636;BME280;27623;51.966;4.602;2023-02-15T07:08:56;63470.31;;;3.85;99.29
41636;BME280;27623;51.966;4.602;2023-02-15T07:11:24;63510.44;;;3.90;98.93
41636;BME280;27623;51.966;4.602;2023-02-15T07:14:09;63527.91;;;3.87;99.65
41636;BME280;27623;51.966;4.602;2023-02-15T07:16:34;63503.59;;;4.00;98.79
41636;BME280;27623;51.966;4.602;2023-02-15T07:19:00;63475.34;;;3.71;99.22
41636;BME280;27623;51.966;4.602;2023-02-15T07:21:25;63495.50;;;3.92;99.56
41636;BME280;27623;51.966;4.602;2023-02-15T07:23:51;63519.81;;;3.87;100.00
41636;BME280;27623;51.966;4.602;2023-02-15T07:26:16;63541.06;;;4.16;98.46
41636;BME280;27623;51.966;4.602;2023-02-15T07:28:43;63496.59;;;3.93;98.71
41636;BME280;27623;51.966;4.602;2023-02-15T07:31:08;63492.81;;;3.97;99.30
41636;BME280;27623;51.966;4.602;2023-02-15T07:33:34;63475.31;;;3.64;100.00
41636;BME280;27623;51.966;4.602;2023-02-15T07:36:02;63515.84;;;3.88;100.00
41636;BME280;27623;51.966;4.602;2023-02-15T07:38:31;63499.84;;;4.18;98.82
41636;BME280;27623;51.966;4.602;2023-02-15T07:40:58;63531.56;;;4.31;98.14
41636;BME280;27623;51.966;4.602;2023-02-15T07:43:27;63531.19;;;4.11;97.77
41636;BME280;27623;51.966;4.602;2023-02-15T07:45:53;63511.72;;;4.14;98.00
41636;BME280;27623;51.966;4.602;2023-02-15T07:48:19;63527.94;;;4.16;98.26
41636;BME280;27623;51.966;4.602;2023-02-15T07:50:44;63526.13;;;4.11;98.32
41636;BME280;27623;51.966;4.602;2023-02-15T07:53:09;63542.34;;;4.20;98.50
41636;BME280;27623;51.966;4.602;2023-02-15T07:55:35;63559.47;;;4.26;98.51
41636;BME280;27623;51.966;4.602;2023-02-15T07:58:02;63503.09;;;4.13;98.68
41636;BME280;27623;51.966;4.602;2023-02-15T08:00:28;63548.47;;;4.28;98.47
41636;BME280;27623;51.966;4.602;2023-02-15T08:02:55;63532.63;;;4.25;98.45
41636;BME280;27623;51.966;4.602;2023-02-15T08:05:40;63548.66;;;4.30;98.73
41636;BME280;27623;51.966;4.602;2023-02-15T08:08:07;63553.34;;;4.39;98.51
41636;BME280;27623;51.966;4.602;2023-02-15T08:10:52;63552.97;;;4.20;99.36
41636;BME280;27623;51.966;4.602;2023-02-15T08:13:36;63566.47;;;4.26;100.00
41636;BME280;27623;51.966;4.602;2023-02-15T08:16:19;63534.06;;;4.24;100.00
41636;BME280;27623;51.966;4.602;2023-02-15T08:18:44;63539.09;;;4.24;100.00
41636;BME280;27623;51.966;4.602;2023-02-15T08:21:13;63538.75;;;4.26;100.00
41636;BME280;27623;51.966;4.602;2023-02-15T08:23:38;63546.66;;;4.17;100.00
41636;BME280;27623;51.966;4.602;2023-02-15T08:26:04;63516.41;;;4.17;100.00
41636;BME280;27623;51.966;4.602;2023-02-15T08:28:30;63522.34;;;4.15;100.00
41636;BME280;27623;51.966;4.602;2023-02-15T08:30:55;63511.53;;;4.19;100.00
41636;BME280;27623;51.966;4.602;2023-02-15T08:33:21;63585.59;;;4.46;100.00
41636;BME280;27623;51.966;4.602;2023-02-15T08:35:46;63604.31;;;4.33;100.00
41636;BME280;27623;51.966;4.602;2023-02-15T08:38:12;63567.41;;;4.45;100.00
41636;BME280;27623;51.966;4.602;2023-02-15T08:40:40;63578.75;;;4.42;100.00
41636;BME280;27623;51.966;4.602;2023-02-15T08:43:05;63539.13;;;4.52;100.00
41636;BME280;27623;51.966;4.602;2023-02-15T08:45:32;63592.47;;;4.57;100.00
41636;BME280;27623;51.966;4.602;2023-02-15T08:47:57;63595.34;;;4.69;100.00
41636;BME280;27623;51.966;4.602;2023-02-15T08:50:22;63619.88;;;4.80;100.00
41636;BME280;27623;51.966;4.602;2023-02-15T08:52:48;63576.25;;;4.70;100.00
41636;BME280;27623;51.966;4.602;2023-02-15T08:55:13;63562.91;;;4.46;100.00
41636;BME280;27623;51.966;4.602;2023-02-15T08:57:39;63561.63;;;4.64;100.00
41636;BME280;27623;51.966;4.602;2023-02-15T09:00:10;63597.88;;;4.76;100.00
41636;BME280;27623;51.966;4.602;2023-02-15T09:02:36;63612.13;;;4.78;100.00
41636;BME280;27623;51.966;4.602;2023-02-15T09:05:02;63620.06;;;4.90;100.00
41636;BME280;27623;51.966;4.602;2023-02-15T09:07:27;63634.66;;;5.04;100.00
41636;BME280;27623;51.966;4.602;2023-02-15T09:09:53;63642.78;;;5.11;100.00
41636;BME280;27623;51.966;4.602;2023-02-15T09:12:19;63639.00;;;5.08;100.00
41636;BME280;27623;51.966;4.602;2023-02-15T09:14:44;63636.47;;;5.08;100.00
41636;BME280;27623;51.966;4.602;2023-02-15T09:17:10;63628.19;;;5.19;100.00
41636;BME280;27623;51.966;4.602;2023-02-15T09:19:35;63625.81;;;5.29;100.00
41636;BME280;27623;51.966;4.602;2023-02-15T09:22:00;63636.63;;;5.46;100.00
41636;BME280;27623;51.966;4.602;2023-02-15T09:24:26;63682.66;;;5.68;100.00
41636;BME280;27623;51.966;4.602;2023-02-15T09:26:51;63707.91;;;5.82;100.00
41636;BME280;27623;51.966;4.602;2023-02-15T09:29:18;63742.63;;;6.00;100.00
41636;BME280;27623;51.966;4.602;2023-02-15T09:31:48;63745.69;;;6.22;100.00
41636;BME280;27623;51.966;4.602;2023-02-15T09:34:16;63704.69;;;6.22;100.00
41636;BME280;27623;51.966;4.602;2023-02-15T09:36:42;63742.59;;;6.29;100.00
41636;BME280;27623;51.966;4.602;2023-02-15T09:39:22;63778.56;;;6.29;100.00
41636;BME280;27623;51.966;4.602;2023-02-15T10:00:57;63881.94;;;7.38;95.42
41636;BME280;27623;51.966;4.602;2023-02-15T10:27:46;63964.78;;;8.20;89.22
41636;BME280;27623;51.966;4.602;2023-02-15T10:30:21;63993.03;;;8.25;87.85
41636;BME280;27623;51.966;4.602;2023-02-15T10:33:11;63984.00;;;8.19;87.25
41636;BME280;27623;51.966;4.602;2023-02-15T10:36:32;63981.63;;;8.21;88.20
41636;BME280;27623;51.966;4.602;2023-02-15T10:38:39;63996.69;;;8.19;87.91
41636;BME280;27623;51.966;4.602;2023-02-15T10:41:21;63979.63;;;8.29;86.24
41636;BME280;27623;51.966;4.602;2023-02-15T10:46:50;64011.53;;;8.49;86.66
41636;BME280;27623;51.966;4.602;2023-02-15T10:53:03;64019.28;;;8.66;86.34
41636;BME280;27623;51.966;4.602;2023-02-15T10:57:57;64105.16;;;9.32;83.25
41636;BME280;27623;51.966;4.602;2023-02-15T11:05:35;64196.25;;;9.84;79.04
41636;BME280;27623;51.966;4.602;2023-02-15T11:08:09;64188.59;;;9.91;79.08
41636;BME280;27623;51.966;4.602;2023-02-15T11:10:39;64201.44;;;10.15;77.50
41636;BME280;27623;51.966;4.602;2023-02-15T11:13:17;64182.19;;;10.02;77.56
41636;BME280;27623;51.966;4.602;2023-02-15T11:15:59;64159.56;;;9.69;77.51
41636;BME280;27623;51.966;4.602;2023-02-15T11:18:32;64210.56;;;10.07;76.25
41636;BME280;27623;51.966;4.602;2023-02-15T11:21:18;64216.16;;;10.28;76.72
41636;BME280;27623;51.966;4.602;2023-02-15T11:23:46;64213.44;;;10.19;77.61
41636;BME280;27623;51.966;4.602;2023-02-15T11:29:07;64203.81;;;10.05;74.64
41636;BME280;27623;51.966;4.602;2023-02-15T11:31:44;64200.19;;;10.04;74.57
41636;BME280;27623;51.966;4.602;2023-02-15T11:34:27;64192.19;;;9.99;75.66
41636;BME280;27623;51.966;4.602;2023-02-15T11:36:56;64203.59;;;10.24;75.01
41636;BME280;27623;51.966;4.602;2023-02-15T11:39:26;64221.97;;;10.31;73.21
41636;BME280;27623;51.966;4.602;2023-02-15T11:41:56;64237.38;;;10.41;73.46
41636;BME280;27623;51.966;4.602;2023-02-15T11:44:29;64228.66;;;10.40;73.52
41636;BME280;27623;51.966;4.602;2023-02-15T11:46:58;64252.28;;;10.50;73.03
41636;BME280;27623;51.966;4.602;2023-02-15T11:49:31;64213.91;;;10.48;72.85
41636;BME280;27623;51.966;4.602;2023-02-15T11:51:58;64242.09;;;10.50;73.00
41636;BME280;27623;51.966;4.602;2023-02-15T11:54:28;64252.81;;;10.58;72.92
41636;BME280;27623;51.966;4.602;2023-02-15T11:57:00;64288.50;;;11.03;72.34
41636;BME280;27623;51.966;4.602;2023-02-15T11:59:32;64323.28;;;11.12;70.16
41636;BME280;27623;51.966;4.602;2023-02-15T12:02:00;64338.75;;;11.14;70.37
41636;BME280;27623;51.966;4.602;2023-02-15T12:07:02;64384.75;;;11.97;68.40
41636;BME280;27623;51.966;4.602;2023-02-15T12:09:40;64408.53;;;11.79;67.35
41636;BME280;27623;51.966;4.602;2023-02-15T12:12:23;64359.69;;;11.67;66.71
41636;BME280;27623;51.966;4.602;2023-02-15T12:14:54;64409.50;;;12.09;66.13
41636;BME280;27623;51.966;4.602;2023-02-15T12:17:28;64430.66;;;12.12;65.41
41636;BME280;27623;51.966;4.602;2023-02-15T12:19:56;64443.16;;;12.30;64.67
41636;BME280;27623;51.966;4.602;2023-02-15T12:22:30;64475.56;;;12.49;64.39
41636;BME280;27623;51.966;4.602;2023-02-15T12:24:59;64478.00;;;12.77;63.58
41636;BME280;27623;51.966;4.602;2023-02-15T12:27:31;64567.50;;;13.22;63.10
41636;BME280;27623;51.966;4.602;2023-02-15T12:30:06;64582.06;;;13.33;60.37
41636;BME280;27623;51.966;4.602;2023-02-15T12:33:32;64536.38;;;12.93;61.36
41636;BME280;27623;51.966;4.602;2023-02-15T12:35:33;64525.69;;;13.09;60.92
41636;BME280;27623;51.966;4.602;2023-02-15T12:38:04;64532.88;;;12.95;62.64
41636;BME280;27623;51.966;4.602;2023-02-15T12:40:32;64493.06;;;12.58;62.85
41636;BME280;27623;51.966;4.602;2023-02-15T12:42:58;64470.03;;;12.65;63.73
41636;BME280;27623;51.966;4.602;2023-02-15T12:45:32;64440.41;;;12.35;63.62
41636;BME280;27623;51.966;4.602;2023-02-15T12:50:40;64481.88;;;12.66;63.12
41636;BME280;27623;51.966;4.602;2023-02-15T12:55:31;64430.69;;;12.43;61.66
41636;BME280;27623;51.966;4.602;2023-02-15T13:00:31;64452.94;;;12.47;62.04
41636;BME280;27623;51.966;4.602;2023-02-15T13:02:58;64479.94;;;12.53;62.27
41636;BME280;27623;51.966;4.602;2023-02-15T13:05:39;64483.72;;;12.63;62.87
41636;BME280;27623;51.966;4.602;2023-02-15T13:10:57;64477.16;;;12.64;61.97
41636;BME280;27623;51.966;4.602;2023-02-15T13:13:29;64471.59;;;12.35;62.40
41636;BME280;27623;51.966;4.602;2023-02-15T13:15:58;64455.16;;;12.42;63.73
41636;BME280;27623;51.966;4.602;2023-02-15T13:18:33;64485.03;;;12.53;62.46
41636;BME280;27623;51.966;4.602;2023-02-15T13:21:12;64403.41;;;12.24;63.16
41636;BME280;27623;51.966;4.602;2023-02-15T13:23:42;64460.00;;;12.22;62.99
41636;BME280;27623;51.966;4.602;2023-02-15T13:26:14;64442.06;;;12.29;63.62
41636;BME280;27623;51.966;4.602;2023-02-15T13:28:55;64437.88;;;12.28;64.00
41636;BME280;27623;51.966;4.602;2023-02-15T13:31:25;64474.97;;;12.17;63.62
41636;BME280;27623;51.966;4.602;2023-02-15T13:34:12;64460.13;;;12.32;63.87
41636;BME280;27623;51.966;4.602;2023-02-15T13:44:57;64473.41;;;12.47;63.13
41636;BME280;27623;51.966;4.602;2023-02-15T13:52:50;64508.47;;;12.82;63.34
41636;BME280;27623;51.966;4.602;2023-02-15T14:19:52;64683.84;;;14.30;59.09
41636;BME280;27623;51.966;4.602;2023-02-15T14:22:22;64640.03;;;14.11;60.59
41636;BME280;27623;51.966;4.602;2023-02-15T14:25:27;64693.41;;;14.20;59.63
41636;BME280;27623;51.966;4.602;2023-02-15T14:28:11;64595.63;;;13.67;61.36
41636;BME280;27623;51.966;4.602;2023-02-15T14:30:42;64619.06;;;13.58;60.37
41636;BME280;27623;51.966;4.602;2023-02-15T14:33:31;64595.03;;;13.36;61.76
41636;BME280;27623;51.966;4.602;2023-02-15T14:35:59;64573.84;;;13.33;62.68
41636;BME280;27623;51.966;4.602;2023-02-15T14:41:53;64483.94;;;12.90;65.82
41636;BME280;27623;51.966;4.602;2023-02-15T14:44:34;64528.13;;;13.00;63.90
41636;BME280;27623;51.966;4.602;2023-02-15T14:47:22;64445.81;;;12.47;65.35
41636;BME280;27623;51.966;4.602;2023-02-15T14:49:50;64403.81;;;12.15;66.79
41636;BME280;27623;51.966;4.602;2023-02-15T14:52:15;64431.88;;;12.22;67.13
41636;BME280;27623;51.966;4.602;2023-02-15T14:59:53;64469.00;;;12.50;67.79
41636;BME280;27623;51.966;4.602;2023-02-15T15:04:59;64471.44;;;12.71;67.01
41636;BME280;27623;51.966;4.602;2023-02-15T15:07:28;64440.03;;;12.37;67.99
41636;BME280;27623;51.966;4.602;2023-02-15T15:10:02;64405.81;;;12.15;68.79
41636;BME280;27623;51.966;4.602;2023-02-15T15:15:04;64432.16;;;11.96;70.07
41636;BME280;27623;51.966;4.602;2023-02-15T15:20:05;64356.31;;;11.92;70.94
41636;BME280;27623;51.966;4.602;2023-02-15T15:22:33;64439.66;;;11.94;70.87
41636;BME280;27623;51.966;4.602;2023-02-15T15:28:02;64324.47;;;11.29;75.52
41636;BME280;27623;51.966;4.602;2023-02-15T15:38:17;64321.16;;;11.41;75.55
41636;BME280;27623;51.966;4.602;2023-02-15T15:49:31;64311.59;;;11.13;77.29
41636;BME280;27623;51.966;4.602;2023-02-15T15:52:18;64323.63;;;11.17;78.25
41636;BME280;27623;51.966;4.602;2023-02-15T15:54:46;64341.78;;;11.29;78.07
41636;BME280;27623;51.966;4.602;2023-02-15T15:57:31;64295.97;;;11.08;77.55
41636;BME280;27623;51.966;4.602;2023-02-15T15:59:58;64308.72;;;11.08;78.33
41636;BME280;27623;51.966;4.602;2023-02-15T16:02:25;64295.22;;;11.12;78.16
41636;BME280;27623;51.966;4.602;2023-02-15T16:04:51;64317.81;;;11.07;78.45
41636;BME280;27623;51.966;4.602;2023-02-15T16:09:54;64273.78;;;10.96;78.72
41636;BME280;27623;51.966;4.602;2023-02-15T16:12:19;64314.56;;;11.03;79.28
41636;BME280;27623;51.966;4.602;2023-02-15T16:14:45;64288.75;;;10.91;79.11
41636;BME280;27623;51.966;4.602;2023-02-15T16:17:23;64272.53;;;10.93;79.23
41636;BME280;27623;51.966;4.602;2023-02-15T16:19:49;64280.19;;;10.86;79.59